Terminal Aerodrome Forecast
Issued by NWS

Home | Current Version | Previous Version | Text Only | Print | Product List | Glossary On
Versions: 1 2 3 4 5 6 7 8 9 10 11 12 13 14 15 16 17 18
103
FTUS46 KSEW 091149
TAFBFI
TAF
KBFI 091149Z 0912/1012 VRB03KT P6SM -SN SCT020 OVC035
      TEMPO 0912/0915 4SM -SN BKN020 OVC035
     FM091500 15007KT 6SM -RA BR BKN020 OVC035
     FM100300 16010KT 6SM -RA BR BKN025 OVC050
     FM100900 16007KT P6SM BKN030 OVC050 PROB30 1009/1012 -SHRA=

USA.gov is the U.S. government's official web portal to all federal, state and local government web resources and services.